Terminal Aerodrome Forecast
Issued by NWS

Home | Current Version | Previous Version | Text Only | Print | Product List | Glossary On
Versions: 1 2 3 4 5 6 7 8 9 10 11 12 13 14 15 16 17 18
157
FTUS45 KFGZ 241308 AAA
TAFPGA
TAF AMD
KPGA 241308Z 2413/2512 26006KT P6SM VCSH SCT035 BKN060
      TEMPO 2413/2414 3SM -SHSN BKN025
     FM241630 29008KT P6SM SCT040 BKN100=

USA.gov is the U.S. government's official web portal to all federal, state and local government web resources and services.